createdAt,value
2019-03-27T00:00:58.649Z,26.87
2019-03-27T00:02:04.657Z,20.43
2019-03-27T00:03:10.329Z,20.77
2019-03-27T00:04:15.897Z,25.50
2019-03-27T00:05:22.309Z,28.50
2019-03-27T00:06:27.904Z,30.52
2019-03-27T00:07:33.451Z,24.27
2019-03-27T00:08:39.087Z,21.40
2019-03-27T00:09:44.761Z,25.77
2019-03-27T00:10:50.381Z,25.37
2019-03-27T00:11:56.235Z,22.58
2019-03-27T00:13:01.936Z,21.57
2019-03-27T00:14:07.508Z,22.35
2019-03-27T00:15:13.954Z,20.17
2019-03-27T00:16:19.563Z,23.95
2019-03-27T00:17:25.105Z,23.98
2019-03-27T00:18:31.492Z,26.77
2019-03-27T00:19:37.413Z,18.40
2019-03-27T00:20:44.604Z,26.65
2019-03-27T00:21:50.549Z,24.90
2019-03-27T00:22:56.187Z,18.60
2019-03-27T00:24:02.299Z,27.95
2019-03-27T00:25:08.411Z,19.52
2019-03-27T00:26:14.079Z,29.32
2019-03-27T00:27:19.658Z,20.00
2019-03-27T00:28:25.247Z,28.25
2019-03-27T00:29:30.900Z,21.45
2019-03-27T00:30:36.790Z,20.75
2019-03-27T00:31:42.496Z,24.18
2019-03-27T00:32:48.109Z,26.93
2019-03-27T00:33:53.747Z,23.85
2019-03-27T00:34:59.491Z,23.83
2019-03-27T00:36:05.160Z,28.65
2019-03-27T00:37:11.264Z,21.85
2019-03-27T00:38:16.877Z,21.00
2019-03-27T00:39:22.881Z,24.57
2019-03-27T00:40:28.463Z,37.35
2019-03-27T00:41:34.742Z,31.33
2019-03-27T00:42:40.402Z,24.52
2019-03-27T00:43:46.058Z,21.95
2019-03-27T00:44:51.665Z,23.47
2019-03-27T00:45:57.326Z,24.92
2019-03-27T00:47:03.047Z,24.60
2019-03-27T00:48:08.764Z,24.52
2019-03-27T00:49:14.362Z,23.05
2019-03-27T00:50:20.646Z,26.93
2019-03-27T00:51:26.649Z,27.60
2019-03-27T00:52:32.167Z,25.25
2019-03-27T00:53:37.785Z,24.98
2019-03-27T00:54:43.482Z,21.57
2019-03-27T00:55:49.120Z,20.30
2019-03-27T00:56:54.640Z,30.65
2019-03-27T00:58:00.291Z,26.93
2019-03-27T00:59:06.257Z,23.30
2019-03-27T01:00:22.210Z,28.17
2019-03-27T01:01:27.793Z,20.50
2019-03-27T01:02:33.425Z,22.90
2019-03-27T01:03:39.071Z,22.77
2019-03-27T01:04:45.031Z,19.60
2019-03-27T01:05:50.643Z,22.65
2019-03-27T01:06:56.341Z,21.20
2019-03-27T01:08:01.931Z,21.60
2019-03-27T01:09:07.609Z,23.57
2019-03-27T01:10:13.398Z,28.23
2019-03-27T01:11:19.201Z,20.65
2019-03-27T01:12:24.870Z,26.68
2019-03-27T01:13:30.528Z,29.40
2019-03-27T01:14:36.272Z,22.32
2019-03-27T01:15:41.831Z,25.15
2019-03-27T01:16:47.504Z,31.75
2019-03-27T01:17:53.103Z,25.35
2019-03-27T01:18:58.689Z,19.10
2019-03-27T01:20:04.672Z,25.08
2019-03-27T01:21:10.437Z,24.85
2019-03-27T01:22:16.041Z,25.80
2019-03-27T01:23:21.755Z,21.45
2019-03-27T01:24:27.786Z,34.43
2019-03-27T01:25:33.361Z,21.48
2019-03-27T01:26:39.053Z,25.92
2019-03-27T01:27:44.610Z,28.07
2019-03-27T01:28:50.240Z,23.32
2019-03-27T01:29:56.107Z,29.72
2019-03-27T01:31:07.190Z,24.18
2019-03-27T01:32:10.383Z,30.00
2019-03-27T01:33:17.216Z,28.32
2019-03-27T01:34:22.957Z,24.82
2019-03-27T01:35:28.792Z,27.45
2019-03-27T01:36:34.431Z,25.65
2019-03-27T01:37:40.542Z,23.80
2019-03-27T01:38:46.613Z,27.48
2019-03-27T01:39:52.228Z,32.38
2019-03-27T01:40:57.974Z,28.20
2019-03-27T01:42:03.707Z,28.25
2019-03-27T01:43:09.736Z,29.92
2019-03-27T01:44:15.411Z,28.15
2019-03-27T01:45:20.959Z,26.68
2019-03-27T01:46:26.556Z,20.75
2019-03-27T01:47:32.223Z,26.48
2019-03-27T01:48:38.193Z,26.80
2019-03-27T01:49:43.892Z,36.77
2019-03-27T01:50:49.596Z,25.23
2019-03-27T01:51:55.543Z,28.23
2019-03-27T01:53:01.208Z,25.80
2019-03-27T01:54:06.783Z,20.50
2019-03-27T01:55:12.524Z,28.15
2019-03-27T01:56:18.122Z,24.87
2019-03-27T01:57:23.796Z,29.02
2019-03-27T01:58:29.752Z,27.80
2019-03-27T02:01:53.274Z,31.93
2019-03-27T02:02:59.094Z,26.80
2019-03-27T02:04:04.628Z,32.13
2019-03-27T02:05:10.993Z,26.57
2019-03-27T02:06:16.584Z,30.48
2019-03-27T02:07:22.298Z,27.50
2019-03-27T02:08:27.896Z,39.05
2019-03-27T02:09:33.778Z,26.55
2019-03-27T02:10:39.838Z,34.18
2019-03-27T02:11:45.361Z,26.33
2019-03-27T02:12:51.280Z,26.62
2019-03-27T02:13:56.954Z,32.20
2019-03-27T02:15:02.595Z,31.07
2019-03-27T02:16:08.239Z,36.28
2019-03-27T02:17:13.798Z,30.88
2019-03-27T02:18:19.307Z,30.97
2019-03-27T02:19:24.842Z,34.20
2019-03-27T02:20:30.484Z,33.80
2019-03-27T02:21:36.075Z,31.70
2019-03-27T02:22:42.332Z,28.25
2019-03-27T02:23:47.844Z,28.75
2019-03-27T02:24:53.674Z,32.33
2019-03-27T02:25:59.673Z,24.30
2019-03-27T02:27:05.287Z,31.70
2019-03-27T02:28:11.365Z,24.98
2019-03-27T02:29:16.918Z,31.05
2019-03-27T02:30:22.502Z,29.00
2019-03-27T02:31:28.554Z,32.63
2019-03-27T02:32:34.147Z,25.05
2019-03-27T02:33:40.071Z,29.57
2019-03-27T02:34:45.753Z,26.50
2019-03-27T02:35:51.400Z,36.08
2019-03-27T02:36:57.635Z,34.00
2019-03-27T02:38:03.259Z,45.90
2019-03-27T02:39:08.892Z,42.85
2019-03-27T02:40:14.834Z,36.68
2019-03-27T02:41:20.385Z,37.48
2019-03-27T02:42:26.346Z,26.15
2019-03-27T02:43:31.882Z,33.73
2019-03-27T02:44:37.713Z,41.45
2019-03-27T02:45:43.316Z,31.42
2019-03-27T02:46:48.773Z,33.40
2019-03-27T02:47:54.275Z,32.05
2019-03-27T02:48:59.787Z,40.88
2019-03-27T02:50:05.680Z,40.63
2019-03-27T02:51:11.227Z,33.15
2019-03-27T02:52:17.132Z,36.90
2019-03-27T02:53:22.906Z,42.23
2019-03-27T02:54:28.402Z,33.55
2019-03-27T02:55:36.466Z,37.17
2019-03-27T02:56:41.970Z,38.75
2019-03-27T02:57:47.952Z,26.45
2019-03-27T02:58:53.446Z,26.55
2019-03-27T02:59:59.424Z,36.13
2019-03-27T03:01:05.429Z,32.90
2019-03-27T03:02:10.934Z,46.13
2019-03-27T03:03:16.586Z,34.10
2019-03-27T03:04:22.060Z,34.03
2019-03-27T03:05:27.630Z,49.48
2019-03-27T03:06:33.237Z,37.20
2019-03-27T03:07:38.877Z,32.58
2019-03-27T03:08:44.420Z,33.45
2019-03-27T03:09:50.225Z,32.85
2019-03-27T03:10:55.755Z,35.85
2019-03-27T03:12:01.338Z,32.53
2019-03-27T03:13:06.957Z,51.98
2019-03-27T03:14:12.554Z,37.93
2019-03-27T03:15:22.591Z,37.03
2019-03-27T03:16:41.343Z,40.23
2019-03-27T03:17:36.313Z,37.28
2019-03-27T03:18:41.913Z,32.08
2019-03-27T03:19:47.742Z,49.15
2019-03-27T03:20:53.350Z,48.02
2019-03-27T03:21:59.279Z,36.68
2019-03-27T03:23:05.151Z,45.38
2019-03-27T03:24:10.819Z,42.25
2019-03-27T03:25:16.707Z,44.80
2019-03-27T03:26:22.226Z,37.00
2019-03-27T03:27:27.834Z,43.17
2019-03-27T03:28:33.424Z,43.58
2019-03-27T03:29:39.314Z,35.25
2019-03-27T03:30:44.890Z,35.63
2019-03-27T03:31:50.549Z,40.00
2019-03-27T03:32:56.304Z,39.88
2019-03-27T03:34:02.200Z,43.08
2019-03-27T03:35:08.028Z,45.98
2019-03-27T03:36:13.713Z,46.92
2019-03-27T03:37:19.567Z,48.00
2019-03-27T03:38:25.156Z,34.73
2019-03-27T03:39:30.727Z,42.17
2019-03-27T03:40:36.359Z,35.23
2019-03-27T03:41:42.108Z,38.28
2019-03-27T03:42:47.628Z,41.37
2019-03-27T03:43:53.553Z,42.75
2019-03-27T03:44:59.153Z,35.25
2019-03-27T03:46:04.986Z,40.73
2019-03-27T03:47:12.643Z,41.05
2019-03-27T03:48:18.257Z,41.73
2019-03-27T03:49:23.695Z,44.20
2019-03-27T03:50:47.484Z,41.90
2019-03-27T03:51:56.561Z,46.68
2019-03-27T03:53:02.633Z,37.93
2019-03-27T03:54:08.593Z,49.18
2019-03-27T03:55:14.176Z,45.75
2019-03-27T03:56:21.997Z,36.17
2019-03-27T03:57:30.000Z,43.30
2019-03-27T03:58:37.591Z,43.33
2019-03-27T03:59:44.086Z,50.33
2019-03-27T04:00:50.407Z,45.80
2019-03-27T04:01:56.123Z,40.05
2019-03-27T04:03:03.814Z,48.30
2019-03-27T04:04:11.074Z,36.80
2019-03-27T04:05:19.972Z,41.08
2019-03-27T04:06:25.641Z,52.83
2019-03-27T04:07:31.332Z,41.18
2019-03-27T04:08:36.944Z,52.75
2019-03-27T04:09:42.525Z,44.58
2019-03-27T04:10:48.635Z,49.90
2019-03-27T04:11:54.099Z,49.40
2019-03-27T04:12:59.690Z,49.58
2019-03-27T04:14:05.765Z,54.53
2019-03-27T04:15:11.736Z,43.92
2019-03-27T04:16:17.274Z,34.75
2019-03-27T04:17:22.906Z,53.55
2019-03-27T04:18:28.521Z,52.40
2019-03-27T04:19:34.030Z,37.15
2019-03-27T04:20:39.891Z,41.55
2019-03-27T04:21:45.795Z,43.78
2019-03-27T04:22:51.646Z,42.53
2019-03-27T04:23:57.191Z,48.20
2019-03-27T04:25:03.179Z,44.18
2019-03-27T04:26:10.791Z,46.35
2019-03-27T04:27:16.239Z,39.80
2019-03-27T04:28:21.904Z,46.85
2019-03-27T04:29:29.662Z,42.78
2019-03-27T04:30:35.401Z,40.08
2019-03-27T04:31:41.236Z,52.65
2019-03-27T04:32:47.326Z,47.17
2019-03-27T04:33:52.824Z,35.17
2019-03-27T04:34:58.357Z,41.18
2019-03-27T04:36:03.935Z,40.30
2019-03-27T04:37:09.907Z,42.75
2019-03-27T04:38:15.445Z,42.80
2019-03-27T04:39:21.322Z,45.50
2019-03-27T04:40:27.010Z,39.10
2019-03-27T04:41:32.616Z,40.83
2019-03-27T04:42:38.112Z,43.30
2019-03-27T04:43:43.710Z,39.27
2019-03-27T04:44:49.291Z,36.08
2019-03-27T04:45:54.905Z,37.80
2019-03-27T04:47:00.396Z,59.30
2019-03-27T04:48:06.043Z,46.10
2019-03-27T04:49:11.711Z,45.08
2019-03-27T04:50:17.211Z,39.15
2019-03-27T04:51:23.037Z,39.40
2019-03-27T04:52:28.499Z,54.77
2019-03-27T04:53:34.052Z,38.35
2019-03-27T04:54:39.925Z,39.95
2019-03-27T04:55:45.461Z,50.35
2019-03-27T04:56:51.057Z,58.65
2019-03-27T04:57:56.672Z,47.60
2019-03-27T04:59:02.423Z,40.73
2019-03-27T05:00:08.499Z,45.80
2019-03-27T05:01:14.268Z,42.98
2019-03-27T05:02:19.936Z,37.08
2019-03-27T05:03:25.761Z,52.40
2019-03-27T05:04:31.855Z,38.90
2019-03-27T05:05:37.439Z,43.78
2019-03-27T05:06:43.075Z,40.88
2019-03-27T05:07:48.714Z,53.50
2019-03-27T05:08:54.377Z,39.48
2019-03-27T05:09:59.981Z,38.80
2019-03-27T05:11:05.860Z,47.48
2019-03-27T05:12:11.417Z,44.75
2019-03-27T05:13:17.073Z,42.83
2019-03-27T05:14:22.980Z,44.83
2019-03-27T05:15:28.575Z,47.25
2019-03-27T05:16:34.206Z,53.80
2019-03-27T05:17:45.956Z,45.52
2019-03-27T05:18:46.963Z,48.28
2019-03-27T05:19:52.487Z,48.33
2019-03-27T05:20:58.361Z,37.48
2019-03-27T05:22:04.021Z,49.42
2019-03-27T05:23:09.565Z,42.48
2019-03-27T05:24:15.144Z,42.58
2019-03-27T05:25:20.727Z,43.68
2019-03-27T05:26:28.724Z,44.70
2019-03-27T05:27:36.336Z,48.40
2019-03-27T05:28:42.339Z,52.70
2019-03-27T05:29:48.260Z,53.42
2019-03-27T05:30:53.941Z,54.18
2019-03-27T05:31:59.604Z,54.05
2019-03-27T05:33:05.179Z,38.45
2019-03-27T05:34:10.792Z,52.23
2019-03-27T05:35:16.433Z,44.73
2019-03-27T05:36:22.107Z,49.58
2019-03-27T05:37:28.104Z,47.55
2019-03-27T05:38:33.585Z,57.98
2019-03-27T05:39:39.520Z,49.18
2019-03-27T05:40:45.473Z,46.95
2019-03-27T05:41:51.396Z,63.05
2019-03-27T05:43:01.083Z,50.98
2019-03-27T05:44:04.671Z,48.23
2019-03-27T05:45:16.491Z,47.58
2019-03-27T05:46:22.431Z,47.40
2019-03-27T05:47:28.201Z,58.20
2019-03-27T05:48:34.149Z,56.10
2019-03-27T05:49:40.033Z,54.00
2019-03-27T05:50:45.604Z,47.58
2019-03-27T05:51:51.184Z,58.38
2019-03-27T05:52:57.150Z,52.62
2019-03-27T05:54:02.750Z,47.15
2019-03-27T05:55:09.022Z,41.58
2019-03-27T05:56:14.614Z,49.00
2019-03-27T05:57:20.231Z,39.78
2019-03-27T05:58:25.954Z,53.63
2019-03-27T05:59:31.640Z,50.10
2019-03-27T06:00:37.133Z,56.98
2019-03-27T06:01:42.778Z,46.08
2019-03-27T06:02:48.716Z,44.75
2019-03-27T06:03:54.283Z,50.75
2019-03-27T06:05:00.601Z,53.75
2019-03-27T06:06:06.205Z,51.30
2019-03-27T06:07:12.037Z,54.88
2019-03-27T06:08:17.931Z,56.65
2019-03-27T06:09:23.953Z,46.83
2019-03-27T06:10:29.919Z,62.40
2019-03-27T06:11:35.825Z,48.63
2019-03-27T06:12:41.719Z,50.00
2019-03-27T06:13:47.622Z,48.58
2019-03-27T06:14:53.205Z,49.38
2019-03-27T06:15:58.686Z,51.77
2019-03-27T06:17:04.797Z,54.00
2019-03-27T06:18:13.348Z,44.73
2019-03-27T06:19:18.114Z,43.35
2019-03-27T06:20:24.599Z,46.80
2019-03-27T06:21:30.412Z,45.73
2019-03-27T06:22:36.029Z,39.42
2019-03-27T06:23:41.950Z,48.02
2019-03-27T06:24:47.483Z,48.10
2019-03-27T06:25:53.278Z,48.52
2019-03-27T06:26:58.766Z,47.33
2019-03-27T06:28:04.365Z,51.77
2019-03-27T06:29:09.864Z,45.05
2019-03-27T06:30:15.644Z,53.23
2019-03-27T06:31:21.213Z,48.15
2019-03-27T06:32:26.997Z,52.67
2019-03-27T06:33:32.915Z,40.75
2019-03-27T06:34:39.151Z,44.35
2019-03-27T06:35:44.826Z,53.00
2019-03-27T06:36:50.775Z,46.23
2019-03-27T06:37:56.587Z,43.65
2019-03-27T06:39:02.174Z,48.60
2019-03-27T06:40:08.959Z,51.40
2019-03-27T06:41:14.501Z,50.35
2019-03-27T06:42:20.172Z,44.00
2019-03-27T06:43:26.390Z,57.03
2019-03-27T06:44:32.096Z,45.50
2019-03-27T06:45:37.679Z,47.67
2019-03-27T06:46:43.237Z,52.62
2019-03-27T06:47:49.163Z,41.63
2019-03-27T06:48:55.102Z,43.20
2019-03-27T06:50:01.119Z,54.67
2019-03-27T06:51:07.236Z,42.93
2019-03-27T06:52:13.576Z,46.35
2019-03-27T06:53:19.213Z,49.53
2019-03-27T06:54:25.081Z,46.92
2019-03-27T06:55:30.620Z,43.33
2019-03-27T06:56:36.375Z,52.48
2019-03-27T06:57:43.123Z,54.67
2019-03-27T06:58:54.755Z,47.05
2019-03-27T06:59:56.774Z,47.05
2019-03-27T07:01:02.358Z,51.18
2019-03-27T07:02:07.965Z,49.10
2019-03-27T07:03:13.593Z,49.88
2019-03-27T07:04:19.578Z,55.43
2019-03-27T07:05:25.271Z,54.95
2019-03-27T07:06:30.704Z,56.13
2019-03-27T07:07:36.362Z,53.85
2019-03-27T07:08:41.958Z,49.70
2019-03-27T07:09:47.417Z,56.90
2019-03-27T07:10:53.243Z,59.58
2019-03-27T07:11:59.160Z,60.67
2019-03-27T07:13:04.922Z,75.47
2019-03-27T07:14:11.101Z,60.38
2019-03-27T07:15:16.766Z,61.60
2019-03-27T07:16:22.351Z,59.13
2019-03-27T07:17:28.021Z,53.30
2019-03-27T07:18:40.009Z,51.05
2019-03-27T07:19:40.908Z,55.55
2019-03-27T07:20:46.679Z,52.73
2019-03-27T07:21:52.991Z,61.98
2019-03-27T07:22:58.591Z,60.85
2019-03-27T07:24:04.599Z,48.87
2019-03-27T07:25:12.070Z,64.72
2019-03-27T07:26:17.945Z,54.03
2019-03-27T07:27:23.519Z,55.12
2019-03-27T07:28:29.120Z,59.45
2019-03-27T07:29:34.617Z,70.12
2019-03-27T07:30:40.175Z,69.62
2019-03-27T07:31:45.751Z,59.70
2019-03-27T07:32:51.295Z,68.22
2019-03-27T07:33:57.224Z,73.97
2019-03-27T07:35:02.897Z,61.88
2019-03-27T07:36:08.466Z,59.98
2019-03-27T07:37:14.904Z,59.45
2019-03-27T07:38:21.003Z,59.50
2019-03-27T07:39:27.374Z,66.75
2019-03-27T07:40:33.085Z,57.38
2019-03-27T07:41:39.014Z,58.50
2019-03-27T07:42:44.863Z,63.68
2019-03-27T07:43:50.430Z,52.17
2019-03-27T07:44:56.034Z,53.05
2019-03-27T07:46:01.687Z,59.33
2019-03-27T07:47:08.920Z,49.88
2019-03-27T07:48:14.471Z,57.13
2019-03-27T07:49:20.064Z,62.35
2019-03-27T07:50:25.779Z,52.73
2019-03-27T07:51:31.463Z,57.03
2019-03-27T07:52:37.351Z,54.83
2019-03-27T07:53:42.958Z,47.15
2019-03-27T07:54:48.617Z,58.92
2019-03-27T07:55:54.221Z,53.58
2019-03-27T07:57:00.124Z,58.10
2019-03-27T07:58:06.059Z,50.40
2019-03-27T07:59:11.588Z,58.33
2019-03-27T08:00:18.147Z,54.00
2019-03-27T08:01:23.760Z,53.63
2019-03-27T08:02:30.095Z,65.05
2019-03-27T08:03:35.680Z,50.17
2019-03-27T08:04:41.707Z,50.98
2019-03-27T08:05:47.208Z,60.15
2019-03-27T08:06:53.067Z,57.62
2019-03-27T08:07:58.637Z,48.75
2019-03-27T08:09:05.135Z,53.92
2019-03-27T08:10:10.981Z,48.30
2019-03-27T08:11:16.821Z,50.08
2019-03-27T08:12:22.303Z,57.27
2019-03-27T08:13:27.951Z,48.50
2019-03-27T08:14:33.580Z,54.53
2019-03-27T08:15:40.826Z,44.30
2019-03-27T08:16:46.631Z,50.75
2019-03-27T08:17:52.660Z,54.63
2019-03-27T08:19:07.361Z,56.45
2019-03-27T08:20:06.462Z,56.80
2019-03-27T08:21:12.746Z,55.33
2019-03-27T08:22:18.286Z,59.85
2019-03-27T08:23:23.863Z,56.90
2019-03-27T08:24:29.474Z,46.68
2019-03-27T08:25:34.986Z,51.77
2019-03-27T08:26:40.572Z,47.45
2019-03-27T08:27:46.131Z,46.02
2019-03-27T08:28:51.621Z,41.20
2019-03-27T08:29:57.449Z,45.75
2019-03-27T08:31:03.020Z,45.95
2019-03-27T08:32:08.741Z,40.67
2019-03-27T08:33:14.371Z,43.30
2019-03-27T08:34:20.247Z,51.65
2019-03-27T08:35:26.019Z,44.67
2019-03-27T08:36:31.928Z,53.30
2019-03-27T08:37:37.493Z,43.05
2019-03-27T08:38:43.112Z,49.80
2019-03-27T08:39:49.057Z,42.80
2019-03-27T08:40:54.934Z,44.15
2019-03-27T08:42:00.543Z,37.63
2019-03-27T08:43:20.310Z,35.03
2019-03-27T08:44:13.591Z,44.23
2019-03-27T08:45:19.442Z,41.37
2019-03-27T08:46:25.193Z,38.85
2019-03-27T08:47:30.966Z,54.50
2019-03-27T08:48:39.231Z,37.90
2019-03-27T08:49:44.525Z,51.05
2019-03-27T08:50:50.249Z,42.95
2019-03-27T08:51:56.106Z,44.53
2019-03-27T08:53:02.025Z,40.90
2019-03-27T08:54:07.599Z,43.40
2019-03-27T08:55:14.016Z,36.10
2019-03-27T08:56:19.799Z,35.10
2019-03-27T08:57:25.370Z,41.83
2019-03-27T08:58:31.331Z,35.00
2019-03-27T08:59:36.927Z,35.98
2019-03-27T09:00:52.055Z,32.98
2019-03-27T09:01:58.040Z,37.13
2019-03-27T09:03:03.527Z,37.25
2019-03-27T09:04:09.212Z,36.70
2019-03-27T09:05:15.350Z,34.03
2019-03-27T09:06:33.159Z,40.60
2019-03-27T09:07:28.794Z,37.40
2019-03-27T09:08:34.359Z,34.92
2019-03-27T09:09:39.917Z,41.68
2019-03-27T09:10:45.635Z,37.58
2019-03-27T09:11:51.206Z,36.38
2019-03-27T09:12:56.877Z,36.58
2019-03-27T09:14:02.439Z,37.45
2019-03-27T09:15:08.884Z,41.18
2019-03-27T09:16:14.936Z,35.63
2019-03-27T09:17:20.582Z,29.75
2019-03-27T09:18:26.192Z,36.25
2019-03-27T09:19:35.882Z,38.35
2019-03-27T09:20:38.881Z,38.33
2019-03-27T09:21:44.398Z,47.35
2019-03-27T09:22:50.012Z,33.75
2019-03-27T09:23:55.476Z,36.73
2019-03-27T09:25:01.008Z,36.85
2019-03-27T09:26:06.879Z,35.73
2019-03-27T09:27:12.519Z,35.03
2019-03-27T09:28:18.126Z,31.40
2019-03-27T09:29:23.978Z,25.90
2019-03-27T09:30:29.665Z,28.47
2019-03-27T09:31:44.590Z,23.40
2019-03-27T09:32:42.645Z,36.88
2019-03-27T09:33:48.279Z,22.30
2019-03-27T09:34:53.831Z,19.75
2019-03-27T09:35:59.748Z,25.55
2019-03-27T09:37:05.823Z,29.12
2019-03-27T09:38:11.520Z,23.55
2019-03-27T09:39:17.067Z,20.85
2019-03-27T09:40:22.991Z,23.62
2019-03-27T09:41:29.011Z,21.68
2019-03-27T09:42:34.632Z,31.90
2019-03-27T09:43:40.187Z,19.52
2019-03-27T09:44:45.694Z,20.00
2019-03-27T09:45:51.624Z,23.40
2019-03-27T09:46:57.526Z,18.65
2019-03-27T09:48:03.125Z,20.43
2019-03-27T09:49:08.719Z,24.18
2019-03-27T09:50:14.851Z,24.40
2019-03-27T09:51:20.373Z,20.62
2019-03-27T09:52:25.979Z,29.40
2019-03-27T09:53:31.865Z,18.30
2019-03-27T09:54:37.702Z,25.72
2019-03-27T09:55:43.214Z,25.30
2019-03-27T09:56:48.836Z,15.72
2019-03-27T09:57:54.495Z,24.87
2019-03-27T09:59:00.553Z,21.33
2019-03-27T10:00:07.543Z,25.85
2019-03-27T10:01:13.429Z,17.27
2019-03-27T10:02:20.199Z,24.60
2019-03-27T10:03:25.742Z,20.95
2019-03-27T10:04:31.666Z,23.32
2019-03-27T10:05:37.202Z,30.82
2019-03-27T10:06:43.458Z,24.43
2019-03-27T10:07:49.349Z,26.93
2019-03-27T10:08:54.888Z,17.27
2019-03-27T10:10:00.492Z,17.75
2019-03-27T10:11:06.215Z,19.27
2019-03-27T10:12:11.805Z,18.77
2019-03-27T10:13:17.641Z,18.87
2019-03-27T10:14:23.244Z,25.08
2019-03-27T10:15:29.125Z,31.12
2019-03-27T10:16:35.136Z,18.62
2019-03-27T10:17:40.667Z,19.57
2019-03-27T10:18:47.542Z,17.35
2019-03-27T10:20:03.187Z,14.65
2019-03-27T10:21:00.756Z,14.13
2019-03-27T10:22:06.471Z,17.85
2019-03-27T10:23:12.038Z,17.42
2019-03-27T10:24:17.506Z,30.30
2019-03-27T10:25:23.124Z,19.98
2019-03-27T10:26:28.733Z,13.35
2019-03-27T10:27:34.366Z,26.60
2019-03-27T10:28:40.134Z,13.98
2019-03-27T10:29:46.031Z,18.15
2019-03-27T10:30:51.635Z,19.90
2019-03-27T10:31:57.263Z,17.57
2019-03-27T10:33:02.931Z,22.80
2019-03-27T10:34:08.640Z,16.35
2019-03-27T10:35:14.499Z,24.07
2019-03-27T10:36:20.131Z,14.75
2019-03-27T10:37:26.098Z,20.25
2019-03-27T10:38:32.431Z,19.07
2019-03-27T10:39:38.024Z,16.32
2019-03-27T10:40:43.653Z,14.98
2019-03-27T10:41:49.238Z,16.07
2019-03-27T10:42:54.755Z,14.40
2019-03-27T10:44:00.222Z,15.43
2019-03-27T10:45:06.652Z,14.28
2019-03-27T10:46:12.388Z,20.32
2019-03-27T10:47:17.917Z,15.80
2019-03-27T10:48:23.526Z,17.35
2019-03-27T10:49:28.989Z,16.80
2019-03-27T10:50:34.453Z,16.57
2019-03-27T10:51:40.063Z,13.25
2019-03-27T10:52:45.664Z,14.18
2019-03-27T10:53:51.655Z,14.83
2019-03-27T10:54:57.239Z,12.18
2019-03-27T10:56:03.032Z,11.40
2019-03-27T10:57:08.651Z,10.78
2019-03-27T10:58:14.221Z,13.15
2019-03-27T10:59:19.828Z,8.05
2019-03-27T11:00:25.729Z,11.40
2019-03-27T11:01:31.629Z,9.08
2019-03-27T11:02:37.101Z,9.73
2019-03-27T11:03:43.048Z,11.48
2019-03-27T11:04:48.758Z,7.40
2019-03-27T11:05:54.222Z,8.25
2019-03-27T11:07:00.259Z,9.53
2019-03-27T11:08:06.011Z,6.70
2019-03-27T11:09:11.683Z,12.53
2019-03-27T11:10:17.296Z,14.18
2019-03-27T11:11:23.238Z,17.73
2019-03-27T11:12:29.131Z,11.35
2019-03-27T11:13:34.852Z,12.78
2019-03-27T11:14:40.565Z,13.68
2019-03-27T11:15:46.237Z,12.40
2019-03-27T11:16:51.747Z,13.48
2019-03-27T11:17:57.402Z,14.73
2019-03-27T11:19:03.332Z,13.80
2019-03-27T11:20:09.466Z,11.20
2019-03-27T11:21:15.435Z,16.30
2019-03-27T11:22:21.007Z,11.57
2019-03-27T11:23:26.642Z,14.05
2019-03-27T11:24:32.500Z,15.32
2019-03-27T11:25:38.686Z,10.23
2019-03-27T11:26:44.175Z,20.37
2019-03-27T11:27:49.684Z,17.65
2019-03-27T11:28:55.337Z,13.38
2019-03-27T11:30:01.209Z,13.28
2019-03-27T11:31:06.789Z,16.12
2019-03-27T11:32:12.417Z,13.65
2019-03-27T11:33:18.031Z,11.80
2019-03-27T11:34:23.540Z,12.07
2019-03-27T11:35:29.527Z,13.72
2019-03-27T11:36:35.358Z,11.05
2019-03-27T11:37:41.092Z,12.33
2019-03-27T11:38:47.016Z,14.53
2019-03-27T11:39:52.689Z,12.82
2019-03-27T11:40:58.526Z,14.38
2019-03-27T11:42:04.177Z,11.12
2019-03-27T11:43:09.807Z,14.70
2019-03-27T11:44:15.609Z,16.45
2019-03-27T11:45:21.446Z,11.03
2019-03-27T11:46:27.005Z,13.85
2019-03-27T11:47:33.370Z,7.25
2019-03-27T11:48:39.249Z,12.07
2019-03-27T11:49:45.164Z,11.88
2019-03-27T11:50:50.919Z,14.50
2019-03-27T11:51:56.892Z,9.95
2019-03-27T11:53:02.605Z,14.73
2019-03-27T11:54:08.095Z,13.45
2019-03-27T11:55:13.864Z,11.03
2019-03-27T11:56:19.302Z,14.23
2019-03-27T11:57:24.876Z,12.25
2019-03-27T11:58:30.470Z,11.25
2019-03-27T11:59:35.952Z,16.50
2019-03-27T12:00:53.977Z,7.30
2019-03-27T12:01:48.887Z,11.18
2019-03-27T12:02:55.343Z,6.83
2019-03-27T12:04:00.982Z,14.43
2019-03-27T12:05:07.239Z,13.98
2019-03-27T12:06:13.056Z,8.93
2019-03-27T12:07:18.569Z,12.53
2019-03-27T12:08:24.172Z,19.48
2019-03-27T12:09:30.095Z,12.13
2019-03-27T12:10:35.696Z,15.28
2019-03-27T12:11:41.310Z,17.32
2019-03-27T12:12:48.370Z,13.68
2019-03-27T12:13:54.442Z,16.85
2019-03-27T12:15:00.411Z,9.25
2019-03-27T12:16:06.258Z,28.40
2019-03-27T12:17:11.897Z,12.23
2019-03-27T12:18:18.022Z,13.78
2019-03-27T12:19:23.473Z,10.58
2019-03-27T12:20:29.286Z,24.45
2019-03-27T12:21:34.854Z,19.42
2019-03-27T12:22:40.395Z,14.18
2019-03-27T12:23:46.325Z,14.55
2019-03-27T12:24:52.023Z,10.93
2019-03-27T12:25:57.999Z,11.33
2019-03-27T12:27:03.633Z,13.85
2019-03-27T12:28:09.313Z,14.50
2019-03-27T12:29:18.048Z,17.52
2019-03-27T12:30:23.154Z,14.33
2019-03-27T12:31:28.957Z,9.70
2019-03-27T12:32:34.498Z,11.35
2019-03-27T12:33:40.020Z,13.68
2019-03-27T12:34:45.626Z,16.17
2019-03-27T12:35:51.144Z,10.63
2019-03-27T12:36:57.101Z,9.75
2019-03-27T12:38:04.519Z,11.35
2019-03-27T12:39:10.234Z,13.13
2019-03-27T12:40:15.861Z,17.85
2019-03-27T12:41:22.690Z,16.77
2019-03-27T12:42:28.581Z,16.87
2019-03-27T12:43:34.068Z,10.43
2019-03-27T12:44:39.837Z,12.85
2019-03-27T12:45:45.701Z,10.35
2019-03-27T12:46:52.061Z,10.78
2019-03-27T12:47:57.736Z,12.35
2019-03-27T12:49:03.340Z,15.13
2019-03-27T12:50:11.036Z,15.50
2019-03-27T12:51:16.739Z,13.70
2019-03-27T12:52:22.433Z,10.15
2019-03-27T12:53:28.061Z,12.68
2019-03-27T12:54:33.592Z,9.55
2019-03-27T12:55:39.837Z,8.90
2019-03-27T12:56:45.649Z,8.43
2019-03-27T12:57:51.415Z,12.30
2019-03-27T12:58:57.288Z,8.95
2019-03-27T13:00:03.217Z,12.03
2019-03-27T13:01:08.790Z,16.57
2019-03-27T13:02:14.423Z,8.50
2019-03-27T13:03:20.184Z,14.78
2019-03-27T13:04:26.021Z,11.12
2019-03-27T13:05:31.591Z,11.53
2019-03-27T13:06:37.105Z,13.18
2019-03-27T13:07:49.902Z,14.10
2019-03-27T13:08:50.751Z,11.95
2019-03-27T13:09:56.322Z,12.75
2019-03-27T13:11:02.162Z,14.47
2019-03-27T13:12:08.030Z,7.03
2019-03-27T13:13:13.603Z,10.60
2019-03-27T13:14:19.432Z,12.23
2019-03-27T13:15:25.078Z,7.85
2019-03-27T13:16:30.819Z,13.15
2019-03-27T13:17:36.379Z,10.58
2019-03-27T13:18:42.004Z,12.50
2019-03-27T13:19:47.868Z,7.47
2019-03-27T13:20:53.661Z,13.65
2019-03-27T13:21:59.287Z,8.45
2019-03-27T13:23:04.998Z,11.90
2019-03-27T13:24:10.713Z,13.43
2019-03-27T13:25:16.365Z,11.83
2019-03-27T13:26:21.928Z,10.88
2019-03-27T13:27:28.099Z,9.78
2019-03-27T13:28:33.562Z,8.58
2019-03-27T13:29:39.173Z,14.15
2019-03-27T13:30:44.723Z,9.45
2019-03-27T13:31:50.377Z,9.48
2019-03-27T13:32:56.228Z,9.75
2019-03-27T13:34:01.863Z,9.63
2019-03-27T13:35:08.077Z,10.58
2019-03-27T13:36:14.457Z,8.15
2019-03-27T13:37:20.240Z,15.63
2019-03-27T13:38:25.991Z,13.85
2019-03-27T13:39:31.666Z,8.13
2019-03-27T13:40:37.131Z,10.43
2019-03-27T13:41:42.729Z,15.58
2019-03-27T13:42:48.361Z,12.20
2019-03-27T13:43:54.033Z,15.63
2019-03-27T13:44:59.547Z,9.25
2019-03-27T13:46:05.853Z,16.50
2019-03-27T13:47:11.477Z,15.20
2019-03-27T13:48:17.505Z,23.55
2019-03-27T13:49:23.319Z,13.50
2019-03-27T13:50:28.918Z,16.65
2019-03-27T13:51:40.365Z,18.75
2019-03-27T13:52:41.786Z,7.28
2019-03-27T13:53:47.453Z,14.60
2019-03-27T13:54:53.009Z,11.55
2019-03-27T13:55:58.957Z,17.92
2019-03-27T13:57:04.738Z,11.35
2019-03-27T13:58:10.655Z,12.25
2019-03-27T13:59:16.387Z,14.35
2019-03-27T14:00:22.338Z,16.27
2019-03-27T14:01:27.950Z,10.30
2019-03-27T14:02:33.597Z,11.73
2019-03-27T14:03:39.057Z,14.45
2019-03-27T14:04:44.733Z,11.55
2019-03-27T14:05:50.271Z,11.53
2019-03-27T14:06:55.929Z,11.85
2019-03-27T14:08:01.472Z,11.43
2019-03-27T14:09:08.605Z,7.58
2019-03-27T14:10:14.793Z,15.50
2019-03-27T14:11:20.529Z,9.68
2019-03-27T14:12:26.234Z,12.28